sensor_id;sensor_type;location;lat;lon;timestamp;P1;durP1;ratioP1;P2;durP2;ratioP2
47804;SDS011;33568;45.286;9.900;2022-12-29T00:02:17;158.32;;;79.53;;
47804;SDS011;33568;45.286;9.900;2022-12-29T00:07:10;149.88;;;79.32;;
47804;SDS011;33568;45.286;9.900;2022-12-29T00:09:36;158.25;;;82.10;;
47804;SDS011;33568;45.286;9.900;2022-12-29T00:14:30;158.00;;;80.07;;
47804;SDS011;33568;45.286;9.900;2022-12-29T00:17:15;154.48;;;82.20;;
47804;SDS011;33568;45.286;9.900;2022-12-29T00:19:41;163.55;;;83.93;;
47804;SDS011;33568;45.286;9.900;2022-12-29T00:22:26;166.00;;;86.43;;
47804;SDS011;33568;45.286;9.900;2022-12-29T00:25:11;160.98;;;81.60;;
47804;SDS011;33568;45.286;9.900;2022-12-29T00:27:57;162.88;;;82.80;;
47804;SDS011;33568;45.286;9.900;2022-12-29T00:30:42;157.15;;;84.28;;
47804;SDS011;33568;45.286;9.900;2022-12-29T00:33:31;151.93;;;81.65;;
47804;SDS011;33568;45.286;9.900;2022-12-29T00:36:25;160.73;;;81.65;;
47804;SDS011;33568;45.286;9.900;2022-12-29T00:39:02;169.63;;;88.97;;
47804;SDS011;33568;45.286;9.900;2022-12-29T00:41:53;160.27;;;84.35;;
47804;SDS011;33568;45.286;9.900;2022-12-29T00:44:39;164.98;;;84.45;;
47804;SDS011;33568;45.286;9.900;2022-12-29T00:47:05;173.65;;;85.10;;
47804;SDS011;33568;45.286;9.900;2022-12-29T00:49:32;169.32;;;84.20;;
47804;SDS011;33568;45.286;9.900;2022-12-29T00:54:31;160.23;;;80.22;;
47804;SDS011;33568;45.286;9.900;2022-12-29T00:56:59;163.85;;;80.00;;
47804;SDS011;33568;45.286;9.900;2022-12-29T00:59:26;169.32;;;82.25;;
47804;SDS011;33568;45.286;9.900;2022-12-29T01:04:20;157.88;;;83.45;;
47804;SDS011;33568;45.286;9.900;2022-12-29T01:06:48;168.68;;;85.68;;
47804;SDS011;33568;45.286;9.900;2022-12-29T01:09:15;163.85;;;84.70;;
47804;SDS011;33568;45.286;9.900;2022-12-29T01:12:01;166.07;;;81.00;;
47804;SDS011;33568;45.286;9.900;2022-12-29T01:14:28;172.35;;;84.22;;
47804;SDS011;33568;45.286;9.900;2022-12-29T01:16:54;161.55;;;81.57;;
47804;SDS011;33568;45.286;9.900;2022-12-29T01:19:21;166.90;;;83.43;;
47804;SDS011;33568;45.286;9.900;2022-12-29T01:21:48;184.60;;;86.88;;
47804;SDS011;33568;45.286;9.900;2022-12-29T01:24:15;152.30;;;80.28;;
47804;SDS011;33568;45.286;9.900;2022-12-29T01:26:43;157.98;;;81.20;;
47804;SDS011;33568;45.286;9.900;2022-12-29T01:29:10;163.80;;;84.95;;
47804;SDS011;33568;45.286;9.900;2022-12-29T01:31:37;152.23;;;81.88;;
47804;SDS011;33568;45.286;9.900;2022-12-29T01:38:58;170.07;;;80.53;;
47804;SDS011;33568;45.286;9.900;2022-12-29T01:41:25;156.43;;;81.28;;
47804;SDS011;33568;45.286;9.900;2022-12-29T01:43:55;165.48;;;82.53;;
47804;SDS011;33568;45.286;9.900;2022-12-29T01:49:18;151.43;;;79.05;;
47804;SDS011;33568;45.286;9.900;2022-12-29T01:54:36;169.20;;;84.22;;
47804;SDS011;33568;45.286;9.900;2022-12-29T01:57:17;149.10;;;79.07;;
47804;SDS011;33568;45.286;9.900;2022-12-29T02:00:10;184.00;;;84.30;;
47804;SDS011;33568;45.286;9.900;2022-12-29T02:02:45;159.93;;;80.75;;
47804;SDS011;33568;45.286;9.900;2022-12-29T02:07:59;171.98;;;83.13;;
47804;SDS011;33568;45.286;9.900;2022-12-29T02:10:28;172.20;;;83.63;;
47804;SDS011;33568;45.286;9.900;2022-12-29T02:12:58;163.60;;;84.43;;
47804;SDS011;33568;45.286;9.900;2022-12-29T02:23:41;161.75;;;80.35;;
47804;SDS011;33568;45.286;9.900;2022-12-29T02:29:50;169.27;;;82.28;;
47804;SDS011;33568;45.286;9.900;2022-12-29T02:40:31;184.82;;;87.50;;
47804;SDS011;33568;45.286;9.900;2022-12-29T02:46:00;170.20;;;83.35;;
47804;SDS011;33568;45.286;9.900;2022-12-29T02:51:14;168.52;;;84.95;;
47804;SDS011;33568;45.286;9.900;2022-12-29T02:53:46;188.75;;;88.78;;
47804;SDS011;33568;45.286;9.900;2022-12-29T02:56:32;168.48;;;83.90;;
47804;SDS011;33568;45.286;9.900;2022-12-29T02:58:58;168.27;;;86.63;;
47804;SDS011;33568;45.286;9.900;2022-12-29T03:07:42;188.73;;;86.97;;
47804;SDS011;33568;45.286;9.900;2022-12-29T03:16:11;182.88;;;87.75;;
47804;SDS011;33568;45.286;9.900;2022-12-29T03:19:04;175.73;;;84.13;;
47804;SDS011;33568;45.286;9.900;2022-12-29T03:21:39;185.23;;;85.43;;
47804;SDS011;33568;45.286;9.900;2022-12-29T03:24:36;177.27;;;84.70;;
47804;SDS011;33568;45.286;9.900;2022-12-29T03:27:09;191.52;;;88.00;;
47804;SDS011;33568;45.286;9.900;2022-12-29T03:29:42;185.75;;;87.57;;
47804;SDS011;33568;45.286;9.900;2022-12-29T03:32:19;180.95;;;87.35;;
47804;SDS011;33568;45.286;9.900;2022-12-29T03:34:49;184.43;;;86.00;;
47804;SDS011;33568;45.286;9.900;2022-12-29T03:37:17;181.63;;;90.20;;
47804;SDS011;33568;45.286;9.900;2022-12-29T03:39:48;181.35;;;85.50;;
47804;SDS011;33568;45.286;9.900;2022-12-29T03:42:15;183.15;;;87.15;;
47804;SDS011;33568;45.286;9.900;2022-12-29T03:44:45;180.65;;;84.45;;
47804;SDS011;33568;45.286;9.900;2022-12-29T03:47:14;166.90;;;84.15;;
47804;SDS011;33568;45.286;9.900;2022-12-29T03:49:43;182.60;;;85.30;;
47804;SDS011;33568;45.286;9.900;2022-12-29T03:52:11;186.10;;;88.40;;
47804;SDS011;33568;45.286;9.900;2022-12-29T03:54:42;178.98;;;85.85;;
47804;SDS011;33568;45.286;9.900;2022-12-29T03:59:53;179.55;;;87.07;;
47804;SDS011;33568;45.286;9.900;2022-12-29T04:02:19;183.85;;;86.18;;
47804;SDS011;33568;45.286;9.900;2022-12-29T04:04:46;182.00;;;87.82;;
47804;SDS011;33568;45.286;9.900;2022-12-29T04:07:13;176.82;;;87.32;;
47804;SDS011;33568;45.286;9.900;2022-12-29T04:09:40;168.68;;;85.50;;
47804;SDS011;33568;45.286;9.900;2022-12-29T04:12:10;175.02;;;86.90;;
47804;SDS011;33568;45.286;9.900;2022-12-29T04:14:36;200.68;;;88.80;;
47804;SDS011;33568;45.286;9.900;2022-12-29T04:17:02;201.20;;;90.18;;
47804;SDS011;33568;45.286;9.900;2022-12-29T04:19:30;182.70;;;87.88;;
47804;SDS011;33568;45.286;9.900;2022-12-29T04:21:56;184.02;;;87.47;;
47804;SDS011;33568;45.286;9.900;2022-12-29T04:26:49;180.90;;;85.43;;
47804;SDS011;33568;45.286;9.900;2022-12-29T04:29:31;197.40;;;89.75;;
47804;SDS011;33568;45.286;9.900;2022-12-29T04:32:15;188.18;;;86.93;;
47804;SDS011;33568;45.286;9.900;2022-12-29T04:34:47;178.57;;;86.72;;
47804;SDS011;33568;45.286;9.900;2022-12-29T04:37:13;186.48;;;88.15;;
47804;SDS011;33568;45.286;9.900;2022-12-29T04:39:41;182.48;;;86.30;;
47804;SDS011;33568;45.286;9.900;2022-12-29T04:42:08;180.40;;;87.05;;
47804;SDS011;33568;45.286;9.900;2022-12-29T04:47:19;183.57;;;83.70;;
47804;SDS011;33568;45.286;9.900;2022-12-29T04:50:00;176.02;;;85.25;;
47804;SDS011;33568;45.286;9.900;2022-12-29T04:52:39;171.73;;;82.78;;
47804;SDS011;33568;45.286;9.900;2022-12-29T04:55:08;168.95;;;85.60;;
47804;SDS011;33568;45.286;9.900;2022-12-29T04:57:35;173.35;;;82.47;;
47804;SDS011;33568;45.286;9.900;2022-12-29T05:00:01;169.55;;;86.13;;
47804;SDS011;33568;45.286;9.900;2022-12-29T05:02:28;165.55;;;84.88;;
47804;SDS011;33568;45.286;9.900;2022-12-29T05:04:56;172.48;;;86.70;;
47804;SDS011;33568;45.286;9.900;2022-12-29T05:07:23;174.27;;;89.03;;
47804;SDS011;33568;45.286;9.900;2022-12-29T05:09:50;171.85;;;86.72;;
47804;SDS011;33568;45.286;9.900;2022-12-29T05:12:17;170.68;;;85.03;;
47804;SDS011;33568;45.286;9.900;2022-12-29T05:14:52;173.52;;;88.60;;
47804;SDS011;33568;45.286;9.900;2022-12-29T05:17:19;168.23;;;87.18;;
47804;SDS011;33568;45.286;9.900;2022-12-29T05:19:45;172.68;;;86.25;;
47804;SDS011;33568;45.286;9.900;2022-12-29T05:24:38;176.93;;;85.57;;
47804;SDS011;33568;45.286;9.900;2022-12-29T05:27:05;185.93;;;86.53;;
47804;SDS011;33568;45.286;9.900;2022-12-29T05:29:47;172.13;;;85.40;;
47804;SDS011;33568;45.286;9.900;2022-12-29T05:34:41;175.10;;;85.45;;
47804;SDS011;33568;45.286;9.900;2022-12-29T05:37:08;168.45;;;87.25;;
47804;SDS011;33568;45.286;9.900;2022-12-29T05:39:35;182.85;;;90.45;;
47804;SDS011;33568;45.286;9.900;2022-12-29T05:42:05;187.82;;;89.55;;
47804;SDS011;33568;45.286;9.900;2022-12-29T05:44:52;184.25;;;87.03;;
47804;SDS011;33568;45.286;9.900;2022-12-29T05:47:39;166.68;;;84.25;;
47804;SDS011;33568;45.286;9.900;2022-12-29T05:50:21;176.30;;;85.00;;
47804;SDS011;33568;45.286;9.900;2022-12-29T05:53:06;166.00;;;84.88;;
47804;SDS011;33568;45.286;9.900;2022-12-29T05:55:32;172.60;;;83.35;;
47804;SDS011;33568;45.286;9.900;2022-12-29T05:58:00;162.75;;;84.05;;
47804;SDS011;33568;45.286;9.900;2022-12-29T06:00:27;185.32;;;85.68;;
47804;SDS011;33568;45.286;9.900;2022-12-29T06:02:53;169.57;;;83.13;;
47804;SDS011;33568;45.286;9.900;2022-12-29T06:07:46;163.75;;;82.60;;
47804;SDS011;33568;45.286;9.900;2022-12-29T06:10:15;179.18;;;83.80;;
47804;SDS011;33568;45.286;9.900;2022-12-29T06:12:49;173.93;;;85.68;;
47804;SDS011;33568;45.286;9.900;2022-12-29T06:15:17;180.63;;;85.30;;
47804;SDS011;33568;45.286;9.900;2022-12-29T06:17:45;178.20;;;86.55;;
47804;SDS011;33568;45.286;9.900;2022-12-29T06:20:12;193.70;;;90.70;;
47804;SDS011;33568;45.286;9.900;2022-12-29T06:22:38;193.77;;;90.38;;
47804;SDS011;33568;45.286;9.900;2022-12-29T06:25:05;187.77;;;89.78;;
47804;SDS011;33568;45.286;9.900;2022-12-29T06:27:33;194.02;;;93.40;;
47804;SDS011;33568;45.286;9.900;2022-12-29T06:30:00;209.57;;;95.97;;
47804;SDS011;33568;45.286;9.900;2022-12-29T06:32:27;185.90;;;90.68;;
47804;SDS011;33568;45.286;9.900;2022-12-29T06:34:59;205.27;;;90.82;;
47804;SDS011;33568;45.286;9.900;2022-12-29T06:37:25;196.63;;;92.13;;
47804;SDS011;33568;45.286;9.900;2022-12-29T06:39:52;186.55;;;89.03;;
47804;SDS011;33568;45.286;9.900;2022-12-29T06:42:19;167.95;;;84.88;;
47804;SDS011;33568;45.286;9.900;2022-12-29T06:45:09;191.82;;;92.35;;
47804;SDS011;33568;45.286;9.900;2022-12-29T06:47:35;190.23;;;88.78;;
47804;SDS011;33568;45.286;9.900;2022-12-29T06:50:02;193.13;;;89.88;;
47804;SDS011;33568;45.286;9.900;2022-12-29T06:52:29;197.27;;;88.25;;
47804;SDS011;33568;45.286;9.900;2022-12-29T06:54:55;176.43;;;87.20;;
47804;SDS011;33568;45.286;9.900;2022-12-29T06:57:22;207.65;;;89.20;;
47804;SDS011;33568;45.286;9.900;2022-12-29T06:59:48;178.98;;;87.70;;
47804;SDS011;33568;45.286;9.900;2022-12-29T07:02:15;182.18;;;87.00;;
47804;SDS011;33568;45.286;9.900;2022-12-29T07:04:43;195.57;;;95.32;;
47804;SDS011;33568;45.286;9.900;2022-12-29T07:07:10;201.68;;;98.88;;
47804;SDS011;33568;45.286;9.900;2022-12-29T07:09:36;176.00;;;92.57;;
47804;SDS011;33568;45.286;9.900;2022-12-29T07:12:03;195.85;;;90.65;;
47804;SDS011;33568;45.286;9.900;2022-12-29T07:16:55;172.00;;;82.97;;
47804;SDS011;33568;45.286;9.900;2022-12-29T07:19:22;177.02;;;86.85;;
47804;SDS011;33568;45.286;9.900;2022-12-29T07:24:14;200.57;;;86.90;;
47804;SDS011;33568;45.286;9.900;2022-12-29T07:26:41;192.00;;;91.28;;
47804;SDS011;33568;45.286;9.900;2022-12-29T07:29:07;233.30;;;100.80;;
47804;SDS011;33568;45.286;9.900;2022-12-29T07:31:34;226.07;;;95.68;;
47804;SDS011;33568;45.286;9.900;2022-12-29T07:34:00;229.60;;;100.45;;
47804;SDS011;33568;45.286;9.900;2022-12-29T07:36:27;233.50;;;105.30;;
47804;SDS011;33568;45.286;9.900;2022-12-29T07:38:54;233.30;;;104.47;;
47804;SDS011;33568;45.286;9.900;2022-12-29T07:43:47;204.82;;;87.72;;
47804;SDS011;33568;45.286;9.900;2022-12-29T07:46:40;191.05;;;90.05;;
47804;SDS011;33568;45.286;9.900;2022-12-29T07:49:07;205.43;;;89.28;;
47804;SDS011;33568;45.286;9.900;2022-12-29T07:53:59;211.93;;;90.60;;
47804;SDS011;33568;45.286;9.900;2022-12-29T07:56:26;218.25;;;93.82;;
47804;SDS011;33568;45.286;9.900;2022-12-29T08:01:19;195.38;;;85.70;;
47804;SDS011;33568;45.286;9.900;2022-12-29T08:03:45;201.45;;;90.65;;
47804;SDS011;33568;45.286;9.900;2022-12-29T08:06:11;207.20;;;93.50;;
47804;SDS011;33568;45.286;9.900;2022-12-29T08:08:38;221.38;;;97.97;;
47804;SDS011;33568;45.286;9.900;2022-12-29T08:11:04;236.27;;;98.53;;
47804;SDS011;33568;45.286;9.900;2022-12-29T08:13:31;211.65;;;95.78;;
47804;SDS011;33568;45.286;9.900;2022-12-29T08:15:58;239.13;;;98.95;;
47804;SDS011;33568;45.286;9.900;2022-12-29T08:18:24;195.80;;;91.20;;
47804;SDS011;33568;45.286;9.900;2022-12-29T08:20:52;239.82;;;94.72;;
47804;SDS011;33568;45.286;9.900;2022-12-29T08:23:18;223.07;;;93.25;;
47804;SDS011;33568;45.286;9.900;2022-12-29T08:25:45;208.48;;;94.88;;
47804;SDS011;33568;45.286;9.900;2022-12-29T08:28:11;204.90;;;94.72;;
47804;SDS011;33568;45.286;9.900;2022-12-29T08:30:38;222.02;;;96.78;;
47804;SDS011;33568;45.286;9.900;2022-12-29T08:35:30;209.00;;;95.60;;
47804;SDS011;33568;45.286;9.900;2022-12-29T08:37:57;194.95;;;92.78;;
47804;SDS011;33568;45.286;9.900;2022-12-29T08:40:23;196.20;;;91.50;;
47804;SDS011;33568;45.286;9.900;2022-12-29T08:42:50;188.48;;;90.28;;
47804;SDS011;33568;45.286;9.900;2022-12-29T08:45:16;183.93;;;90.25;;
47804;SDS011;33568;45.286;9.900;2022-12-29T08:47:43;212.55;;;92.38;;
47804;SDS011;33568;45.286;9.900;2022-12-29T08:50:12;200.10;;;87.57;;
47804;SDS011;33568;45.286;9.900;2022-12-29T08:52:39;205.65;;;90.82;;
47804;SDS011;33568;45.286;9.900;2022-12-29T08:55:05;186.77;;;89.90;;
47804;SDS011;33568;45.286;9.900;2022-12-29T08:57:32;188.77;;;87.53;;
47804;SDS011;33568;45.286;9.900;2022-12-29T09:00:05;197.82;;;91.15;;
47804;SDS011;33568;45.286;9.900;2022-12-29T09:02:32;207.15;;;93.97;;
47804;SDS011;33568;45.286;9.900;2022-12-29T09:04:59;213.00;;;93.93;;
47804;SDS011;33568;45.286;9.900;2022-12-29T09:07:26;211.75;;;93.47;;
47804;SDS011;33568;45.286;9.900;2022-12-29T09:09:52;204.43;;;93.60;;
47804;SDS011;33568;45.286;9.900;2022-12-29T09:12:19;203.07;;;91.20;;
47804;SDS011;33568;45.286;9.900;2022-12-29T09:14:48;204.70;;;93.28;;
47804;SDS011;33568;45.286;9.900;2022-12-29T09:17:14;207.70;;;92.03;;
47804;SDS011;33568;45.286;9.900;2022-12-29T09:19:59;200.32;;;89.75;;
47804;SDS011;33568;45.286;9.900;2022-12-29T09:22:26;199.85;;;92.32;;
47804;SDS011;33568;45.286;9.900;2022-12-29T09:24:52;186.27;;;90.68;;
47804;SDS011;33568;45.286;9.900;2022-12-29T09:27:18;190.07;;;92.35;;
47804;SDS011;33568;45.286;9.900;2022-12-29T09:29:45;198.70;;;93.85;;
47804;SDS011;33568;45.286;9.900;2022-12-29T09:32:12;205.27;;;93.43;;
47804;SDS011;33568;45.286;9.900;2022-12-29T09:34:38;205.93;;;94.85;;
47804;SDS011;33568;45.286;9.900;2022-12-29T09:39:31;209.80;;;93.70;;
47804;SDS011;33568;45.286;9.900;2022-12-29T09:42:19;220.98;;;95.57;;
47804;SDS011;33568;45.286;9.900;2022-12-29T09:44:48;233.10;;;98.90;;
47804;SDS011;33568;45.286;9.900;2022-12-29T09:47:21;239.50;;;105.68;;
47804;SDS011;33568;45.286;9.900;2022-12-29T09:49:51;210.00;;;94.30;;
47804;SDS011;33568;45.286;9.900;2022-12-29T09:57:30;204.20;;;93.60;;
47804;SDS011;33568;45.286;9.900;2022-12-29T10:00:23;185.75;;;90.95;;
47804;SDS011;33568;45.286;9.900;2022-12-29T10:03:16;194.57;;;91.40;;
47804;SDS011;33568;45.286;9.900;2022-12-29T10:25:40;213.02;;;114.57;;
47804;SDS011;33568;45.286;9.900;2022-12-29T10:28:42;172.45;;;86.60;;
47804;SDS011;33568;45.286;9.900;2022-12-29T10:31:05;159.20;;;84.18;;
47804;SDS011;33568;45.286;9.900;2022-12-29T10:33:39;161.95;;;85.05;;
47804;SDS011;33568;45.286;9.900;2022-12-29T10:36:15;152.57;;;79.72;;
47804;SDS011;33568;45.286;9.900;2022-12-29T10:41:16;153.48;;;82.90;;
47804;SDS011;33568;45.286;9.900;2022-12-29T10:43:50;145.23;;;79.85;;
47804;SDS011;33568;45.286;9.900;2022-12-29T10:46:24;164.80;;;89.60;;
47804;SDS011;33568;45.286;9.900;2022-12-29T10:48:54;156.52;;;84.90;;
47804;SDS011;33568;45.286;9.900;2022-12-29T10:53:53;158.32;;;84.50;;
47804;SDS011;33568;45.286;9.900;2022-12-29T10:59:03;149.70;;;78.32;;
47804;SDS011;33568;45.286;9.900;2022-12-29T11:01:39;140.77;;;76.88;;
47804;SDS011;33568;45.286;9.900;2022-12-29T11:07:30;150.93;;;80.00;;
47804;SDS011;33568;45.286;9.900;2022-12-29T11:13:12;139.05;;;74.65;;
47804;SDS011;33568;45.286;9.900;2022-12-29T11:15:44;151.00;;;82.45;;
47804;SDS011;33568;45.286;9.900;2022-12-29T11:18:25;152.05;;;79.45;;
47804;SDS011;33568;45.286;9.900;2022-12-29T11:21:01;145.65;;;76.78;;
47804;SDS011;33568;45.286;9.900;2022-12-29T11:28:32;143.90;;;75.80;;
47804;SDS011;33568;45.286;9.900;2022-12-29T11:31:00;147.80;;;78.25;;
47804;SDS011;33568;45.286;9.900;2022-12-29T11:33:28;136.98;;;75.20;;
47804;SDS011;33568;45.286;9.900;2022-12-29T11:35:58;135.13;;;73.65;;
47804;SDS011;33568;45.286;9.900;2022-12-29T11:38:39;129.85;;;71.30;;
47804;SDS011;33568;45.286;9.900;2022-12-29T11:41:10;201.48;;;112.97;;
47804;SDS011;33568;45.286;9.900;2022-12-29T11:43:40;136.52;;;74.90;;
47804;SDS011;33568;45.286;9.900;2022-12-29T11:48:57;126.90;;;69.72;;
47804;SDS011;33568;45.286;9.900;2022-12-29T11:51:47;137.55;;;75.15;;
47804;SDS011;33568;45.286;9.900;2022-12-29T11:54:18;140.45;;;81.78;;
47804;SDS011;33568;45.286;9.900;2022-12-29T11:56:53;143.30;;;76.15;;
47804;SDS011;33568;45.286;9.900;2022-12-29T12:01:53;148.20;;;80.20;;
47804;SDS011;33568;45.286;9.900;2022-12-29T12:04:27;144.68;;;78.22;;
47804;SDS011;33568;45.286;9.900;2022-12-29T12:07:02;146.00;;;77.55;;
47804;SDS011;33568;45.286;9.900;2022-12-29T12:09:53;145.13;;;76.47;;
47804;SDS011;33568;45.286;9.900;2022-12-29T12:15:02;145.68;;;77.43;;
47804;SDS011;33568;45.286;9.900;2022-12-29T12:17:56;156.07;;;82.82;;
47804;SDS011;33568;45.286;9.900;2022-12-29T12:20:42;168.32;;;87.10;;
47804;SDS011;33568;45.286;9.900;2022-12-29T12:25:54;158.60;;;84.53;;
47804;SDS011;33568;45.286;9.900;2022-12-29T12:28:26;163.27;;;85.07;;
47804;SDS011;33568;45.286;9.900;2022-12-29T12:31:00;167.75;;;85.82;;
47804;SDS011;33568;45.286;9.900;2022-12-29T12:33:35;161.00;;;83.85;;
47804;SDS011;33568;45.286;9.900;2022-12-29T12:44:00;155.57;;;85.00;;
47804;SDS011;33568;45.286;9.900;2022-12-29T13:06:15;166.02;;;89.65;;
47804;SDS011;33568;45.286;9.900;2022-12-29T13:09:28;166.73;;;91.20;;
47804;SDS011;33568;45.286;9.900;2022-12-29T13:25:46;148.02;;;83.18;;
47804;SDS011;33568;45.286;9.900;2022-12-29T13:28:48;137.98;;;78.18;;
47804;SDS011;33568;45.286;9.900;2022-12-29T13:34:42;143.77;;;80.88;;
47804;SDS011;33568;45.286;9.900;2022-12-29T13:37:24;147.18;;;83.32;;
47804;SDS011;33568;45.286;9.900;2022-12-29T13:40:03;150.95;;;84.80;;
47804;SDS011;33568;45.286;9.900;2022-12-29T13:42:38;151.43;;;80.45;;
47804;SDS011;33568;45.286;9.900;2022-12-29T13:45:09;142.27;;;80.80;;
47804;SDS011;33568;45.286;9.900;2022-12-29T13:47:41;149.68;;;85.95;;
47804;SDS011;33568;45.286;9.900;2022-12-29T13:50:19;165.23;;;90.80;;
47804;SDS011;33568;45.286;9.900;2022-12-29T13:55:32;198.00;;;131.85;;
47804;SDS011;33568;45.286;9.900;2022-12-29T14:00:54;159.70;;;94.63;;
47804;SDS011;33568;45.286;9.900;2022-12-29T14:03:55;144.40;;;80.13;;
47804;SDS011;33568;45.286;9.900;2022-12-29T14:06:33;145.23;;;79.38;;
47804;SDS011;33568;45.286;9.900;2022-12-29T14:09:34;153.60;;;84.82;;
47804;SDS011;33568;45.286;9.900;2022-12-29T14:12:00;148.70;;;82.82;;
47804;SDS011;33568;45.286;9.900;2022-12-29T14:17:30;133.52;;;75.97;;
47804;SDS011;33568;45.286;9.900;2022-12-29T14:19:51;134.50;;;78.15;;
47804;SDS011;33568;45.286;9.900;2022-12-29T14:22:23;135.23;;;75.45;;
47804;SDS011;33568;45.286;9.900;2022-12-29T14:24:50;130.52;;;76.70;;
47804;SDS011;33568;45.286;9.900;2022-12-29T14:29:45;135.57;;;78.80;;
47804;SDS011;33568;45.286;9.900;2022-12-29T14:39:48;124.80;;;76.50;;
47804;SDS011;33568;45.286;9.900;2022-12-29T14:50:06;130.73;;;77.18;;
47804;SDS011;33568;45.286;9.900;2022-12-29T14:52:57;156.35;;;83.75;;
47804;SDS011;33568;45.286;9.900;2022-12-29T14:55:36;149.80;;;84.53;;
47804;SDS011;33568;45.286;9.900;2022-12-29T14:58:05;140.63;;;78.88;;
47804;SDS011;33568;45.286;9.900;2022-12-29T15:00:38;140.05;;;79.65;;
47804;SDS011;33568;45.286;9.900;2022-12-29T15:03:20;137.75;;;79.63;;
47804;SDS011;33568;45.286;9.900;2022-12-29T15:08:29;143.48;;;83.32;;
47804;SDS011;33568;45.286;9.900;2022-12-29T15:11:03;140.02;;;80.93;;
47804;SDS011;33568;45.286;9.900;2022-12-29T15:13:38;144.95;;;88.10;;
47804;SDS011;33568;45.286;9.900;2022-12-29T15:16:29;151.98;;;87.18;;
47804;SDS011;33568;45.286;9.900;2022-12-29T15:19:02;151.00;;;88.50;;
47804;SDS011;33568;45.286;9.900;2022-12-29T15:21:31;138.45;;;81.43;;
47804;SDS011;33568;45.286;9.900;2022-12-29T15:24:00;131.68;;;82.85;;
47804;SDS011;33568;45.286;9.900;2022-12-29T15:26:41;139.80;;;84.57;;
47804;SDS011;33568;45.286;9.900;2022-12-29T15:34:51;142.57;;;81.88;;
47804;SDS011;33568;45.286;9.900;2022-12-29T15:37:25;152.02;;;85.82;;
47804;SDS011;33568;45.286;9.900;2022-12-29T15:39:53;154.80;;;89.38;;
47804;SDS011;33568;45.286;9.900;2022-12-29T15:45:06;139.77;;;82.35;;
47804;SDS011;33568;45.286;9.900;2022-12-29T15:47:36;160.35;;;91.10;;
47804;SDS011;33568;45.286;9.900;2022-12-29T15:50:15;155.02;;;86.07;;
47804;SDS011;33568;45.286;9.900;2022-12-29T15:52:46;152.27;;;86.97;;
47804;SDS011;33568;45.286;9.900;2022-12-29T15:55:47;159.95;;;90.55;;
47804;SDS011;33568;45.286;9.900;2022-12-29T15:58:21;172.20;;;86.85;;
47804;SDS011;33568;45.286;9.900;2022-12-29T16:00:51;139.00;;;81.03;;
47804;SDS011;33568;45.286;9.900;2022-12-29T16:03:20;147.85;;;83.70;;
47804;SDS011;33568;45.286;9.900;2022-12-29T16:05:51;155.38;;;87.57;;
47804;SDS011;33568;45.286;9.900;2022-12-29T16:08:31;158.50;;;89.60;;
47804;SDS011;33568;45.286;9.900;2022-12-29T16:11:04;163.48;;;87.88;;
47804;SDS011;33568;45.286;9.900;2022-12-29T16:13:43;161.35;;;90.05;;
47804;SDS011;33568;45.286;9.900;2022-12-29T16:18:42;174.43;;;94.07;;
47804;SDS011;33568;45.286;9.900;2022-12-29T16:21:17;180.38;;;90.18;;
47804;SDS011;33568;45.286;9.900;2022-12-29T16:23:53;166.70;;;85.05;;
47804;SDS011;33568;45.286;9.900;2022-12-29T16:26:23;147.02;;;79.85;;
47804;SDS011;33568;45.286;9.900;2022-12-29T16:28:51;141.82;;;76.53;;
47804;SDS011;33568;45.286;9.900;2022-12-29T16:34:10;123.22;;;68.07;;
47804;SDS011;33568;45.286;9.900;2022-12-29T16:36:40;124.13;;;65.75;;
47804;SDS011;33568;45.286;9.900;2022-12-29T16:39:36;105.35;;;60.13;;
47804;SDS011;33568;45.286;9.900;2022-12-29T16:50:33;95.22;;;57.45;;
47804;SDS011;33568;45.286;9.900;2022-12-29T16:53:01;99.70;;;60.10;;
47804;SDS011;33568;45.286;9.900;2022-12-29T16:55:29;98.57;;;56.58;;
47804;SDS011;33568;45.286;9.900;2022-12-29T16:57:56;91.65;;;54.20;;
47804;SDS011;33568;45.286;9.900;2022-12-29T17:00:25;88.32;;;55.25;;
47804;SDS011;33568;45.286;9.900;2022-12-29T17:02:54;97.07;;;57.47;;
47804;SDS011;33568;45.286;9.900;2022-12-29T17:05:23;92.75;;;53.90;;
47804;SDS011;33568;45.286;9.900;2022-12-29T17:07:49;93.70;;;56.78;;
47804;SDS011;33568;45.286;9.900;2022-12-29T17:10:16;96.80;;;54.83;;
47804;SDS011;33568;45.286;9.900;2022-12-29T17:12:44;105.40;;;56.53;;
47804;SDS011;33568;45.286;9.900;2022-12-29T17:15:26;101.97;;;56.50;;
47804;SDS011;33568;45.286;9.900;2022-12-29T17:17:59;113.53;;;62.28;;
47804;SDS011;33568;45.286;9.900;2022-12-29T17:22:54;103.40;;;56.15;;
47804;SDS011;33568;45.286;9.900;2022-12-29T17:25:42;126.03;;;58.08;;
47804;SDS011;33568;45.286;9.900;2022-12-29T17:28:14;115.85;;;57.33;;
47804;SDS011;33568;45.286;9.900;2022-12-29T17:30:49;117.20;;;55.40;;
47804;SDS011;33568;45.286;9.900;2022-12-29T17:33:18;97.13;;;52.75;;
47804;SDS011;33568;45.286;9.900;2022-12-29T17:35:46;93.70;;;52.22;;
47804;SDS011;33568;45.286;9.900;2022-12-29T17:38:19;99.45;;;58.63;;
47804;SDS011;33568;45.286;9.900;2022-12-29T17:40:53;96.95;;;54.10;;
47804;SDS011;33568;45.286;9.900;2022-12-29T17:43:20;90.18;;;49.92;;
47804;SDS011;33568;45.286;9.900;2022-12-29T17:48:19;93.13;;;52.78;;
47804;SDS011;33568;45.286;9.900;2022-12-29T17:50:47;89.90;;;51.05;;
47804;SDS011;33568;45.286;9.900;2022-12-29T17:53:20;85.28;;;49.40;;
47804;SDS011;33568;45.286;9.900;2022-12-29T17:55:49;89.18;;;47.92;;
47804;SDS011;33568;45.286;9.900;2022-12-29T17:58:23;75.45;;;46.05;;
47804;SDS011;33568;45.286;9.900;2022-12-29T18:00:52;75.10;;;45.75;;
47804;SDS011;33568;45.286;9.900;2022-12-29T18:03:25;82.18;;;45.53;;
47804;SDS011;33568;45.286;9.900;2022-12-29T18:05:53;85.65;;;48.20;;
47804;SDS011;33568;45.286;9.900;2022-12-29T18:08:20;78.05;;;45.78;;
47804;SDS011;33568;45.286;9.900;2022-12-29T18:10:46;67.80;;;43.70;;
47804;SDS011;33568;45.286;9.900;2022-12-29T18:15:59;71.35;;;44.88;;
47804;SDS011;33568;45.286;9.900;2022-12-29T18:18:26;72.22;;;48.30;;
47804;SDS011;33568;45.286;9.900;2022-12-29T18:20:54;77.32;;;48.20;;
47804;SDS011;33568;45.286;9.900;2022-12-29T18:25:50;36.30;;;28.10;;
47804;SDS011;33568;45.286;9.900;2022-12-29T18:28:24;36.60;;;26.65;;
47804;SDS011;33568;45.286;9.900;2022-12-29T18:30:51;33.08;;;26.50;;
47804;SDS011;33568;45.286;9.900;2022-12-29T18:33:19;28.00;;;22.50;;
47804;SDS011;33568;45.286;9.900;2022-12-29T18:36:03;27.40;;;22.05;;
47804;SDS011;33568;45.286;9.900;2022-12-29T18:38:30;32.40;;;22.98;;
47804;SDS011;33568;45.286;9.900;2022-12-29T18:40:57;28.60;;;22.08;;
47804;SDS011;33568;45.286;9.900;2022-12-29T18:43:24;29.27;;;21.88;;
47804;SDS011;33568;45.286;9.900;2022-12-29T18:45:50;31.08;;;21.40;;
47804;SDS011;33568;45.286;9.900;2022-12-29T18:48:17;28.33;;;21.90;;
47804;SDS011;33568;45.286;9.900;2022-12-29T18:50:44;26.98;;;23.48;;
47804;SDS011;33568;45.286;9.900;2022-12-29T18:53:22;25.38;;;22.10;;